Time;durP1;ratioP1;P1;durP2;ratioP2;P2;SDS_P1;SDS_P2;PMS_P1;PMS_P2;Temp;Humidity;BMP_temperature;BMP_pressure;BME280_temperature;BME280_humidity;BME280_pressure;Samples;Min_cycle;Max_cycle;Signal;HPM_P1;HPM_P2
2022/03/11 00:01:12;;;;;;;3.47;2.40;;;1.10;84.00;;;;;;5033581;28;20184;-71
2022/03/11 00:03:37;;;;;;;2.67;2.47;;;1.00;84.20;;;;;;5033498;28;20199;-71
2022/03/11 00:06:03;;;;;;;2.57;1.47;;;1.00;84.20;;;;;;5033866;28;20445;-71
2022/03/11 00:08:28;;;;;;;3.67;2.70;;;1.00;84.10;;;;;;5033596;28;20172;-70
2022/03/11 00:10:54;;;;;;;4.57;3.30;;;1.00;84.40;;;;;;5052096;22;20204;-66
2022/03/11 00:13:19;;;;;;;4.93;3.70;;;0.90;84.40;;;;;;5018972;28;20178;-66
2022/03/11 00:15:45;;;;;;;4.10;3.70;;;0.90;84.70;;;;;;5033350;28;20241;-67
2022/03/11 00:18:10;;;;;;;5.70;3.27;;;0.80;84.80;;;;;;5033469;28;20700;-66
2022/03/11 00:20:36;;;;;;;6.73;2.20;;;0.80;85.10;;;;;;5033306;28;20168;-67
2022/03/11 00:23:01;;;;;;;2.23;2.10;;;0.80;85.20;;;;;;5033053;28;20241;-66
2022/03/11 00:25:27;;;;;;;2.30;2.20;;;0.80;84.90;;;;;;5033096;28;20235;-66
2022/03/11 00:27:52;;;;;;;2.73;2.63;;;0.80;84.70;;;;;;5033173;28;20168;-68
2022/03/11 00:30:18;;;;;;;3.83;2.93;;;0.80;85.00;;;;;;5033486;28;20202;-66
2022/03/11 00:32:45;;;;;;;3.30;3.10;;;0.70;85.00;;;;;;5033050;28;20721;-66
2022/03/11 00:35:11;;;;;;;6.47;4.40;;;0.70;84.70;;;;;;5033290;28;20168;-66
2022/03/11 00:37:38;;;;;;;4.30;2.30;;;0.70;84.70;;;;;;5033126;28;20884;-67
2022/03/11 00:40:05;;;;;;;7.20;3.73;;;0.70;84.70;;;;;;5033509;28;20969;-66
2022/03/11 00:42:30;;;;;;;5.77;3.23;;;0.70;85.30;;;;;;5032985;28;20932;-66
2022/03/11 00:44:56;;;;;;;2.83;2.53;;;0.60;85.00;;;;;;5033675;28;20435;-66
2022/03/11 00:47:21;;;;;;;5.70;5.17;;;0.60;84.90;;;;;;5032695;28;20172;-66
2022/03/11 00:49:47;;;;;;;8.23;3.17;;;0.60;84.70;;;;;;5032788;28;20544;-66
2022/03/11 00:52:12;;;;;;;4.70;3.80;;;0.60;84.70;;;;;;5032491;28;20201;-66
2022/03/11 00:54:38;;;;;;;2.70;2.23;;;0.60;84.50;;;;;;5032494;28;20164;-66
2022/03/11 00:57:03;;;;;;;3.20;2.90;;;0.50;84.70;;;;;;5032547;28;20262;-66
2022/03/11 00:59:29;;;;;;;3.73;2.83;;;0.60;84.70;;;;;;5032558;28;20199;-66
2022/03/11 01:01:55;;;;;;;5.53;3.47;;;0.60;84.30;;;;;;5032200;28;20315;-66
2022/03/11 01:04:20;;;;;;;7.27;3.60;;;0.50;84.00;;;;;;5032422;28;20164;-66
2022/03/11 01:06:46;;;;;;;7.30;2.90;;;0.60;84.00;;;;;;5032009;28;20174;-66
2022/03/11 01:09:11;;;;;;;9.63;4.30;;;0.60;84.00;;;;;;5032100;28;20168;-67
2022/03/11 01:11:37;;;;;;;3.50;3.30;;;0.50;84.30;;;;;;5031764;28;20704;-67
2022/03/11 01:14:03;;;;;;;4.90;3.43;;;0.50;84.30;;;;;;5032096;28;20214;-67
2022/03/11 01:16:29;;;;;;;3.33;3.03;;;0.50;84.50;;;;;;5032027;28;20172;-67
2022/03/11 01:18:54;;;;;;;3.13;2.90;;;0.50;84.60;;;;;;5031824;28;20449;-67
2022/03/11 01:21:20;;;;;;;2.47;2.23;;;0.40;84.40;;;;;;5031891;28;20426;-67
2022/03/11 01:23:46;;;;;;;3.53;2.53;;;0.40;84.20;;;;;;5031110;28;20266;-67
2022/03/11 01:26:12;;;;;;;7.80;3.10;;;0.40;83.90;;;;;;5031434;28;20179;-66
2022/03/11 01:28:42;;;;;;;10.50;4.03;;;0.40;83.90;;;;;;5031982;28;20175;-67
2022/03/11 01:31:11;;;;;;;5.40;3.23;;;0.40;84.40;;;;;;5031580;28;20509;-67
2022/03/11 01:33:40;;;;;;;7.77;4.10;;;0.40;83.60;;;;;;5031581;28;20406;-68
2022/03/11 01:36:09;;;;;;;2.87;2.60;;;0.40;83.80;;;;;;5031504;28;20417;-66
2022/03/11 01:38:35;;;;;;;2.00;1.90;;;0.30;84.30;;;;;;5031339;28;20515;-66
2022/03/11 01:41:00;;;;;;;3.07;2.77;;;0.30;84.00;;;;;;5031440;28;20415;-66
2022/03/11 01:43:27;;;;;;;4.60;2.20;;;0.30;84.20;;;;;;5031565;28;20203;-66
2022/03/11 01:45:53;;;;;;;4.50;2.40;;;0.30;84.40;;;;;;5031619;28;20189;-66
2022/03/11 01:48:19;;;;;;;4.03;2.70;;;0.30;84.40;;;;;;5031660;28;20410;-66
2022/03/11 01:50:44;;;;;;;5.73;2.93;;;0.30;84.40;;;;;;5031391;28;20179;-67
2022/03/11 01:53:11;;;;;;;3.13;2.93;;;0.30;84.20;;;;;;5031375;28;20240;-66
2022/03/11 01:55:38;;;;;;;10.30;2.97;;;0.20;84.30;;;;;;5031287;28;20180;-67
2022/03/11 01:58:05;;;;;;;3.73;3.43;;;0.20;84.60;;;;;;5031358;28;20545;-67
2022/03/11 02:00:31;;;;;;;5.57;2.37;;;0.20;84.60;;;;;;5031287;28;20787;-67
2022/03/11 02:02:57;;;;;;;2.67;2.47;;;0.20;84.80;;;;;;5031153;28;20435;-67
2022/03/11 02:05:23;;;;;;;4.20;3.80;;;0.10;84.90;;;;;;5031233;28;20422;-67
2022/03/11 02:07:49;;;;;;;4.93;4.43;;;0.10;84.70;;;;;;5029784;28;20176;-67
2022/03/11 02:10:15;;;;;;;3.60;2.60;;;0.10;85.50;;;;;;5031197;28;20563;-67
2022/03/11 02:12:41;;;;;;;6.90;5.00;;;0.10;85.00;;;;;;5031051;28;20438;-67
2022/03/11 02:15:08;;;;;;;5.47;4.17;;;0.00;85.20;;;;;;5030927;28;20398;-67
2022/03/11 02:17:33;;;;;;;4.43;3.20;;;0.00;85.20;;;;;;5031122;28;20187;-68
2022/03/11 02:19:59;;;;;;;3.23;3.00;;;0.00;85.00;;;;;;5031024;28;20452;-66
2022/03/11 02:22:25;;;;;;;3.23;3.03;;;0.00;85.10;;;;;;5030972;28;20270;-66
2022/03/11 02:24:52;;;;;;;3.60;3.07;;;0.00;85.10;;;;;;5031096;28;20225;-66
2022/03/11 02:27:18;;;;;;;7.10;3.70;;;0.00;85.20;;;;;;5031152;28;20418;-66
2022/03/11 02:29:43;;;;;;;3.90;2.70;;;-0.10;85.90;;;;;;5031299;28;20407;-68
2022/03/11 02:32:09;;;;;;;4.30;3.77;;;-0.10;85.90;;;;;;5031130;28;20199;-67
2022/03/11 02:34:37;;;;;;;7.60;2.37;;;-0.10;85.70;;;;;;5031059;28;20267;-66
2022/03/11 02:37:04;;;;;;;5.07;2.80;;;-0.20;86.10;;;;;;5034523;28;20318;-67
2022/03/11 02:39:29;;;;;;;7.87;4.53;;;-0.20;85.80;;;;;;5034811;28;20454;-66
2022/03/11 02:41:55;;;;;;;5.53;3.40;;;-0.20;86.00;;;;;;5034820;28;20418;-66
2022/03/11 02:44:21;;;;;;;3.13;2.50;;;-0.20;86.40;;;;;;5034857;28;20183;-67
2022/03/11 02:46:46;;;;;;;3.10;1.70;;;-0.20;86.00;;;;;;5034931;28;20525;-67
2022/03/11 02:49:12;;;;;;;2.27;2.07;;;-0.20;86.00;;;;;;5034991;28;20418;-67
2022/03/11 02:51:37;;;;;;;5.20;3.63;;;-0.20;86.40;;;;;;5034766;28;20206;-67
2022/03/11 02:54:03;;;;;;;3.90;2.60;;;-0.30;86.30;;;;;;5034886;28;20179;-67
2022/03/11 02:56:28;;;;;;;2.50;2.03;;;-0.30;86.30;;;;;;5034751;28;20491;-67
2022/03/11 02:58:54;;;;;;;2.60;2.40;;;-0.30;86.60;;;;;;5034377;28;20460;-67
2022/03/11 03:01:19;;;;;;;6.20;3.37;;;-0.40;86.60;;;;;;5034344;28;20184;-67
2022/03/11 03:03:45;;;;;;;6.93;3.43;;;-0.40;86.50;;;;;;5034536;28;20834;-67
2022/03/11 03:06:10;;;;;;;3.70;3.43;;;-0.40;86.60;;;;;;5034289;28;20178;-67
2022/03/11 03:08:36;;;;;;;7.77;3.00;;;-0.40;87.10;;;;;;5034209;28;20163;-67
2022/03/11 03:11:01;;;;;;;6.37;4.07;;;-0.40;87.10;;;;;;5034115;28;20199;-66
2022/03/11 03:13:27;;;;;;;4.67;3.93;;;-0.50;87.10;;;;;;5034328;28;20537;-66
2022/03/11 03:15:52;;;;;;;3.03;2.10;;;-0.50;87.20;;;;;;5033978;28;20460;-66
2022/03/11 03:18:18;;;;;;;5.60;3.10;;;-0.60;87.50;;;;;;5034211;28;20246;-66
2022/03/11 03:20:44;;;;;;;5.13;2.60;;;-0.60;87.80;;;;;;5034291;28;20180;-66
2022/03/11 03:23:09;;;;;;;3.77;3.57;;;-0.60;87.80;;;;;;5034111;28;20255;-66
2022/03/11 03:25:35;;;;;;;3.83;3.03;;;-0.70;87.80;;;;;;5034081;28;20238;-66
2022/03/11 03:28:01;;;;;;;11.90;4.27;;;-0.70;88.10;;;;;;5034100;28;20645;-66
2022/03/11 03:30:26;;;;;;;3.20;2.90;;;-0.80;88.10;;;;;;5034207;28;20270;-66
2022/03/11 03:32:51;;;;;;;3.93;3.53;;;-0.80;88.30;;;;;;5034412;28;20210;-67
2022/03/11 03:35:17;;;;;;;2.17;1.90;;;-0.90;88.40;;;;;;5035304;28;20191;-68
2022/03/11 03:37:43;;;;;;;7.10;2.43;;;-0.90;88.90;;;;;;5034908;28;20171;-66
2022/03/11 03:40:09;;;;;;;7.20;3.23;;;-0.90;88.80;;;;;;5034720;28;20645;-66
2022/03/11 03:42:34;;;;;;;6.63;4.03;;;-0.90;88.60;;;;;;5037305;28;20191;-66
2022/03/11 03:45:00;;;;;;;2.83;2.63;;;-0.90;88.90;;;;;;5036955;28;21069;-67
2022/03/11 03:47:26;;;;;;;6.83;3.63;;;-0.90;89.10;;;;;;5033359;28;20242;-67
2022/03/11 03:49:51;;;;;;;7.47;2.53;;;-0.90;89.20;;;;;;5033606;28;20573;-67
2022/03/11 03:52:17;;;;;;;6.20;3.33;;;-1.00;89.40;;;;;;5033652;28;20226;-67
2022/03/11 03:54:44;;;;;;;6.50;3.37;;;-1.00;89.40;;;;;;5033499;28;20176;-67
2022/03/11 03:57:10;;;;;;;3.53;2.43;;;-1.00;89.60;;;;;;5033438;28;20406;-67
2022/03/11 03:59:35;;;;;;;2.63;2.43;;;-1.00;89.40;;;;;;5033392;28;20449;-67
2022/03/11 04:02:00;;;;;;;2.57;2.37;;;-1.00;89.70;;;;;;5033281;28;20211;-67
2022/03/11 04:04:26;;;;;;;5.13;3.27;;;-1.10;89.70;;;;;;5033167;28;20645;-67
2022/03/11 04:06:51;;;;;;;2.70;2.50;;;-1.10;90.00;;;;;;5033385;28;20167;-67
2022/03/11 04:09:18;;;;;;;5.43;3.67;;;-1.10;90.10;;;;;;5033359;28;20638;-66
2022/03/11 04:11:43;;;;;;;4.93;3.53;;;-1.10;90.20;;;;;;5032883;28;20218;-66
2022/03/11 04:14:09;;;;;;;3.43;3.23;;;-1.20;90.20;;;;;;5032942;28;20423;-66
2022/03/11 04:16:34;;;;;;;2.93;2.73;;;-1.20;90.20;;;;;;5033347;28;20164;-67
2022/03/11 04:19:00;;;;;;;5.43;3.93;;;-1.20;90.30;;;;;;5033228;28;20199;-68
2022/03/11 04:21:25;;;;;;;4.90;4.60;;;-1.20;90.30;;;;;;5033294;28;20565;-66
2022/03/11 04:23:51;;;;;;;2.20;2.10;;;-1.20;90.50;;;;;;5033463;28;20630;-67
2022/03/11 04:26:17;;;;;;;4.30;2.63;;;-1.20;90.50;;;;;;5033602;28;20205;-67
2022/03/11 04:28:43;;;;;;;4.57;2.70;;;-1.30;90.30;;;;;;5033548;28;20398;-66
2022/03/11 04:31:11;;;;;;;2.63;2.43;;;-1.30;90.40;;;;;;5033305;28;20790;-67
2022/03/11 04:33:38;;;;;;;5.77;2.97;;;-1.30;90.50;;;;;;5033342;28;20512;-67
2022/03/11 04:36:05;;;;;;;2.63;2.43;;;-1.30;90.40;;;;;;5033203;28;20419;-67
2022/03/11 04:38:31;;;;;;;5.63;3.07;;;-1.30;90.50;;;;;;5033684;28;20434;-67
2022/03/11 04:40:57;;;;;;;5.30;4.87;;;-1.30;90.40;;;;;;5015561;28;20411;-66
2022/03/11 04:43:23;;;;;;;2.13;2.03;;;-1.40;90.60;;;;;;5032435;28;20424;-67
2022/03/11 04:45:48;;;;;;;3.07;2.80;;;-1.30;90.60;;;;;;5032403;28;20488;-67
2022/03/11 04:48:14;;;;;;;2.40;2.20;;;-1.30;90.50;;;;;;5032723;28;20199;-67
2022/03/11 04:50:40;;;;;;;2.93;2.60;;;-1.30;90.40;;;;;;5032571;28;20896;-66
2022/03/11 04:53:05;;;;;;;2.80;1.90;;;-1.40;90.40;;;;;;5032313;28;20202;-67
2022/03/11 04:55:31;;;;;;;5.00;4.03;;;-1.40;90.60;;;;;;5032232;28;20172;-67
2022/03/11 04:57:57;;;;;;;5.27;2.93;;;-1.40;90.50;;;;;;5031814;28;20590;-67
2022/03/11 05:00:23;;;;;;;3.90;3.70;;;-1.40;90.50;;;;;;5032289;28;20437;-67
2022/03/11 05:02:48;;;;;;;2.10;2.00;;;-1.40;90.60;;;;;;5032219;28;20198;-67
2022/03/11 05:05:15;;;;;;;6.53;3.43;;;-1.40;90.70;;;;;;5031955;28;20198;-67
2022/03/11 05:07:41;;;;;;;4.30;2.97;;;-1.50;90.80;;;;;;5032205;28;20213;-68
2022/03/11 05:10:13;;;;;;;5.63;4.63;;;-1.50;90.80;;;;;;5031945;28;20978;-67
2022/03/11 05:12:40;;;;;;;5.17;3.30;;;-1.50;90.90;;;;;;5031783;28;20829;-67
2022/03/11 05:15:07;;;;;;;3.20;1.97;;;-1.50;90.90;;;;;;5031703;28;20418;-67
2022/03/11 05:17:32;;;;;;;3.47;3.27;;;-1.60;91.00;;;;;;5031965;28;20418;-67
2022/03/11 05:19:58;;;;;;;4.10;3.80;;;-1.60;90.80;;;;;;5031776;28;20899;-67
2022/03/11 05:22:24;;;;;;;9.90;4.83;;;-1.60;91.00;;;;;;5031558;28;20191;-68
2022/03/11 05:24:50;;;;;;;5.53;4.03;;;-1.60;91.20;;;;;;5031540;28;20441;-67
2022/03/11 05:27:16;;;;;;;3.30;3.00;;;-1.60;91.10;;;;;;5031739;28;20207;-67
2022/03/11 05:29:41;;;;;;;7.30;3.43;;;-1.60;91.10;;;;;;5031788;28;20418;-67
2022/03/11 05:32:08;;;;;;;4.97;4.30;;;-1.70;91.10;;;;;;5031525;28;20513;-67
2022/03/11 05:34:34;;;;;;;4.17;3.77;;;-1.70;91.10;;;;;;5031492;28;20183;-67
2022/03/11 05:37:00;;;;;;;2.33;2.10;;;-1.70;91.20;;;;;;5031698;28;20493;-67
2022/03/11 05:39:26;;;;;;;4.10;3.10;;;-1.60;91.20;;;;;;5031614;28;20538;-66
2022/03/11 05:41:51;;;;;;;4.47;4.07;;;-1.70;91.10;;;;;;5031457;28;20439;-67
2022/03/11 05:44:17;;;;;;;5.60;2.43;;;-1.70;91.10;;;;;;5031536;28;20662;-67
2022/03/11 05:46:43;;;;;;;3.03;2.73;;;-1.70;91.20;;;;;;5031797;28;20195;-67
2022/03/11 05:49:09;;;;;;;1.60;1.50;;;-1.70;91.00;;;;;;5031669;28;20303;-67
2022/03/11 05:51:35;;;;;;;7.40;3.37;;;-1.70;91.20;;;;;;5031483;28;20451;-67
2022/03/11 05:54:00;;;;;;;3.37;2.03;;;-1.70;91.10;;;;;;5031544;28;20261;-67
2022/03/11 05:56:26;;;;;;;3.83;3.53;;;-1.70;91.10;;;;;;5031428;28;20501;-66
2022/03/11 05:58:52;;;;;;;3.13;2.33;;;-1.60;91.20;;;;;;5031328;28;20737;-67
2022/03/11 06:01:18;;;;;;;7.63;2.30;;;-1.60;91.00;;;;;;5031333;28;20704;-67
2022/03/11 06:03:46;;;;;;;6.70;3.73;;;-1.60;91.20;;;;;;5031526;28;20441;-67
2022/03/11 06:06:11;;;;;;;5.83;2.50;;;-1.60;91.00;;;;;;5031260;28;20179;-67
2022/03/11 06:08:37;;;;;;;5.90;3.67;;;-1.50;91.00;;;;;;5031327;28;20414;-67
2022/03/11 06:11:02;;;;;;;8.87;4.03;;;-1.50;91.00;;;;;;5015593;28;20455;-67
2022/03/11 06:13:28;;;;;;;4.57;2.70;;;-1.50;90.90;;;;;;5035869;28;20199;-67
2022/03/11 06:15:53;;;;;;;5.80;3.80;;;-1.50;90.90;;;;;;5062545;22;20214;-70
2022/03/11 06:18:19;;;;;;;2.63;2.43;;;-1.40;90.90;;;;;;5054006;28;20683;-72
2022/03/11 06:20:45;;;;;;;2.30;2.10;;;-1.30;90.70;;;;;;5055634;28;20170;-72
2022/03/11 06:23:10;;;;;;;2.97;2.77;;;-1.20;90.60;;;;;;5055424;28;20182;-71
2022/03/11 06:25:36;;;;;;;9.13;5.00;;;-1.10;91.30;;;;;;5055979;28;20761;-71
2022/03/11 06:28:02;;;;;;;10.73;4.93;;;-0.90;90.20;;;;;;5055607;28;20164;-71
2022/03/11 06:30:28;;;;;;;3.30;2.57;;;-0.60;90.10;;;;;;5055425;28;20171;-71
2022/03/11 06:32:53;;;;;;;6.00;2.57;;;-0.10;88.40;;;;;;5054127;28;20467;-70
2022/03/11 06:35:19;;;;;;;4.37;4.10;;;0.10;87.40;;;;;;5056611;28;20539;-70
2022/03/11 06:37:47;;;;;;;7.87;5.03;;;0.30;85.60;;;;;;5039735;28;20180;-70
2022/03/11 06:40:13;;;;;;;2.73;2.30;;;0.50;84.50;;;;;;5055349;28;20186;-69
2022/03/11 06:42:41;;;;;;;5.00;3.53;;;1.00;83.40;;;;;;5055365;28;20819;-71
2022/03/11 06:45:08;;;;;;;5.73;4.73;;;1.40;82.00;;;;;;5055342;28;20528;-71
2022/03/11 06:47:34;;;;;;;5.03;2.97;;;1.90;80.80;;;;;;5056591;28;20427;-71
2022/03/11 06:50:00;;;;;;;9.67;5.47;;;1.80;79.10;;;;;;5057663;28;20754;-71
2022/03/11 06:52:26;;;;;;;4.67;3.40;;;1.70;79.40;;;;;;5040401;28;20413;-70
2022/03/11 06:54:51;;;;;;;4.00;3.43;;;1.70;79.40;;;;;;5059213;28;20440;-71
2022/03/11 06:57:17;;;;;;;7.17;5.57;;;2.20;78.60;;;;;;5056636;28;20214;-70
2022/03/11 06:59:47;;;;;;;3.60;3.30;;;2.10;77.70;;;;;;5056270;28;20279;-71
2022/03/11 07:02:12;;;;;;;8.10;4.80;;;2.30;76.90;;;;;;5056414;28;20423;-71
2022/03/11 07:04:38;;;;;;;4.67;3.57;;;2.40;76.00;;;;;;5056329;28;20490;-70
2022/03/11 07:07:04;;;;;;;3.50;3.13;;;2.10;75.80;;;;;;5056185;28;20676;-70
2022/03/11 07:09:29;;;;;;;3.77;3.47;;;2.20;76.90;;;;;;5055389;28;20633;-70
2022/03/11 07:11:57;;;;;;;7.00;3.27;;;2.70;75.30;;;;;;5055108;28;20405;-69
2022/03/11 07:14:26;;;;;;;3.87;3.03;;;2.90;75.20;;;;;;5055033;28;20181;-71
2022/03/11 07:16:52;;;;;;;9.50;4.87;;;2.60;73.00;;;;;;5054926;28;20868;-70
2022/03/11 07:19:24;;;;;;;6.10;3.60;;;2.60;73.70;;;;;;5037043;28;20441;-70
2022/03/11 07:21:50;;;;;;;4.40;3.43;;;2.50;74.60;;;;;;5054834;28;20812;-70
2022/03/11 07:24:16;;;;;;;6.50;3.93;;;3.10;73.10;;;;;;5055097;28;20496;-70
2022/03/11 07:26:41;;;;;;;7.10;3.90;;;2.90;72.00;;;;;;5054891;28;20232;-71
2022/03/11 07:29:07;;;;;;;5.13;3.83;;;2.90;72.30;;;;;;5054886;28;20174;-71
2022/03/11 07:31:32;;;;;;;4.30;3.90;;;3.30;71.60;;;;;;5054377;28;20178;-70
2022/03/11 07:33:58;;;;;;;5.10;3.37;;;3.60;70.10;;;;;;5036718;28;20174;-71
2022/03/11 07:36:24;;;;;;;2.90;2.70;;;4.00;67.90;;;;;;5054614;28;20207;-70
2022/03/11 07:38:50;;;;;;;6.60;4.10;;;4.60;67.80;;;;;;5055652;28;20449;-71
2022/03/11 07:41:16;;;;;;;5.90;4.43;;;4.30;67.20;;;;;;5055625;28;20417;-70
2022/03/11 07:43:44;;;;;;;12.50;5.23;;;4.40;66.80;;;;;;5054033;28;20540;-70
2022/03/11 07:46:11;;;;;;;11.63;4.87;;;4.00;66.30;;;;;;5053741;28;20421;-71
2022/03/11 07:48:37;;;;;;;9.63;4.87;;;4.40;66.20;;;;;;5053631;28;20991;-70
2022/03/11 07:51:02;;;;;;;4.00;3.60;;;4.40;65.60;;;;;;5054041;28;20492;-71
2022/03/11 07:53:28;;;;;;;4.97;4.23;;;4.10;65.10;;;;;;5053675;28;20167;-70
2022/03/11 07:55:54;;;;;;;4.10;3.30;;;4.60;65.70;;;;;;5054247;28;20195;-71
2022/03/11 07:58:21;;;;;;;8.70;5.07;;;5.10;63.60;;;;;;5053858;28;20191;-70
2022/03/11 08:00:48;;;;;;;10.93;3.77;;;4.50;63.00;;;;;;5054373;28;20187;-70
2022/03/11 08:03:14;;;;;;;6.53;3.80;;;4.60;65.10;;;;;;5054593;28;20397;-72
2022/03/11 08:05:39;;;;;;;3.20;2.63;;;5.10;63.00;;;;;;5055091;28;20927;-71
2022/03/11 08:08:05;;;;;;;10.67;5.57;;;5.20;63.30;;;;;;5054394;28;20805;-71
2022/03/11 08:10:33;;;;;;;7.10;4.40;;;5.70;60.90;;;;;;5053627;28;20236;-71
2022/03/11 08:12:59;;;;;;;10.97;4.00;;;5.60;61.60;;;;;;5053856;28;20184;-71
2022/03/11 08:15:25;;;;;;;6.23;4.23;;;5.40;59.90;;;;;;5053706;28;20408;-71
2022/03/11 08:17:51;;;;;;;9.10;4.60;;;5.40;62.10;;;;;;5053753;28;20409;-70
2022/03/11 08:20:18;;;;;;;5.77;3.67;;;5.50;60.50;;;;;;5054281;28;20164;-71
2022/03/11 08:22:45;;;;;;;6.10;4.70;;;5.50;59.80;;;;;;5056336;28;20398;-71
2022/03/11 08:25:11;;;;;;;7.53;3.73;;;5.50;59.50;;;;;;5054983;28;20472;-70
2022/03/11 08:27:37;;;;;;;6.03;3.33;;;5.00;59.10;;;;;;5052856;28;20452;-70
2022/03/11 08:30:07;;;;;;;4.70;4.07;;;5.30;59.60;;;;;;5052664;28;20417;-70
2022/03/11 08:32:33;;;;;;;6.07;3.40;;;5.40;59.30;;;;;;5052762;28;20414;-70
2022/03/11 08:34:59;;;;;;;9.40;4.27;;;6.20;58.50;;;;;;5052409;28;20405;-69
2022/03/11 08:37:25;;;;;;;8.67;4.93;;;5.90;59.20;;;;;;5052942;28;20195;-69
2022/03/11 08:39:51;;;;;;;7.97;3.80;;;6.20;58.20;;;;;;5035348;28;20526;-69
2022/03/11 08:42:17;;;;;;;5.27;4.30;;;6.00;58.60;;;;;;5052635;28;20208;-69
2022/03/11 08:44:42;;;;;;;7.20;4.50;;;6.00;58.00;;;;;;5052521;28;20398;-71
2022/03/11 08:47:09;;;;;;;8.07;4.10;;;5.90;57.10;;;;;;5052535;28;20191;-71
2022/03/11 08:49:34;;;;;;;6.63;4.30;;;6.30;56.70;;;;;;5052723;28;20660;-70
2022/03/11 08:51:59;;;;;;;8.53;4.00;;;6.40;56.30;;;;;;5052609;28;20402;-70
2022/03/11 08:54:25;;;;;;;9.10;3.87;;;6.10;56.50;;;;;;5052394;28;20180;-70
2022/03/11 08:56:53;;;;;;;6.47;3.40;;;6.50;56.80;;;;;;5052044;28;20200;-70
2022/03/11 08:59:19;;;;;;;9.47;4.60;;;7.20;56.00;;;;;;5052137;28;20195;-70
2022/03/11 09:01:44;;;;;;;9.00;4.80;;;6.50;55.40;;;;;;5052298;28;20868;-70
2022/03/11 09:04:09;;;;;;;5.00;3.40;;;6.30;55.30;;;;;;5052510;28;20163;-70
2022/03/11 09:06:35;;;;;;;5.73;3.37;;;6.10;54.90;;;;;;5052269;28;20192;-71
2022/03/11 09:09:00;;;;;;;5.30;4.03;;;5.90;55.00;;;;;;5052620;28;20603;-70
2022/03/11 09:11:26;;;;;;;8.40;5.00;;;5.80;55.60;;;;;;5052078;28;20177;-71
2022/03/11 09:13:53;;;;;;;6.00;3.90;;;6.10;55.20;;;;;;5052336;28;20181;-71
2022/03/11 09:16:18;;;;;;;4.00;3.50;;;6.40;54.80;;;;;;5052405;28;20209;-70
2022/03/11 09:18:44;;;;;;;4.03;3.53;;;6.60;54.40;;;;;;5052309;28;20461;-70
2022/03/11 09:21:09;;;;;;;7.90;4.17;;;6.60;54.20;;;;;;5041379;28;20179;-71
2022/03/11 09:23:35;;;;;;;6.47;3.10;;;6.60;53.10;;;;;;5037747;28;20175;-71
2022/03/11 09:26:00;;;;;;;5.70;4.30;;;6.90;53.20;;;;;;5055583;28;20265;-70
2022/03/11 09:28:26;;;;;;;6.67;3.93;;;7.10;53.40;;;;;;5054261;28;20653;-70
2022/03/11 09:30:52;;;;;;;9.17;3.60;;;7.30;52.90;;;;;;5053437;28;20653;-70
2022/03/11 09:33:17;;;;;;;5.97;4.80;;;6.70;52.10;;;;;;5051927;28;20173;-71
2022/03/11 09:35:43;;;;;;;10.00;4.37;;;6.90;52.10;;;;;;5052018;28;20287;-70
2022/03/11 09:38:08;;;;;;;5.90;4.37;;;6.90;51.80;;;;;;5051767;28;20202;-71
2022/03/11 09:40:34;;;;;;;5.57;4.77;;;6.70;51.30;;;;;;5051768;28;20182;-70
2022/03/11 09:43:01;;;;;;;5.43;3.50;;;6.60;52.10;;;;;;5051836;28;20182;-71
2022/03/11 09:45:27;;;;;;;8.03;4.40;;;5.90;51.20;;;;;;5050849;28;20184;-71
2022/03/11 09:47:54;;;;;;;7.03;3.73;;;5.40;51.30;;;;;;5051861;28;20406;-71
2022/03/11 09:50:19;;;;;;;5.27;4.00;;;5.30;51.60;;;;;;5051776;28;20416;-70
2022/03/11 09:52:47;;;;;;;5.17;3.33;;;5.00;52.30;;;;;;5051617;28;20753;-71
2022/03/11 09:55:13;;;;;;;5.03;3.50;;;5.20;52.80;;;;;;5051495;28;20203;-71
2022/03/11 09:57:38;;;;;;;6.67;4.33;;;5.50;53.40;;;;;;5051577;28;20471;-71
2022/03/11 10:00:05;;;;;;;3.70;3.17;;;5.50;52.50;;;;;;5051854;28;20562;-70
2022/03/11 10:02:31;;;;;;;8.73;4.83;;;5.40;51.30;;;;;;5051992;28;20174;-70
2022/03/11 10:04:57;;;;;;;6.47;4.33;;;4.90;51.90;;;;;;5051933;28;20414;-72
2022/03/11 10:07:27;;;;;;;6.03;4.03;;;4.90;52.10;;;;;;5052523;28;20459;-71
2022/03/11 10:09:55;;;;;;;5.47;4.77;;;4.90;52.20;;;;;;5053291;28;20182;-71
2022/03/11 10:12:27;;;;;;;5.00;3.50;;;4.60;52.00;;;;;;5053506;28;20471;-71
2022/03/11 10:15:00;;;;;;;5.73;3.70;;;4.70;52.50;;;;;;5036053;28;20473;-71
2022/03/11 10:17:27;;;;;;;6.30;4.20;;;4.60;52.50;;;;;;5054197;28;20625;-71
2022/03/11 10:20:05;;;;;;;5.90;3.27;;;4.60;52.50;;;;;;5055140;28;20514;-72
2022/03/11 10:22:31;;;;;;;7.43;4.33;;;4.60;52.10;;;;;;5055683;28;20401;-71
2022/03/11 10:25:16;;;;;;;6.47;4.10;;;4.80;51.70;;;;;;5036176;28;21328;-71
2022/03/11 10:28:11;;;;;;;5.87;2.53;;;4.70;51.20;;;;;;5054966;28;20447;-70
2022/03/11 10:30:39;;;;;;;4.63;3.60;;;4.80;50.70;;;;;;5058517;28;20406;-73
2022/03/11 10:33:12;;;;;;;4.40;3.07;;;4.80;50.70;;;;;;5058489;28;20405;-71
2022/03/11 10:35:39;;;;;;;7.70;3.40;;;4.60;50.10;;;;;;5056246;28;20901;-71
2022/03/11 10:38:10;;;;;;;3.73;3.13;;;4.70;51.10;;;;;;5076369;28;20462;-72
2022/03/11 10:40:56;;;;;;;5.80;3.33;;;4.80;51.00;;;;;;5073453;28;20765;-71
2022/03/11 10:43:23;;;;;;;3.43;3.13;;;4.70;50.80;;;;;;5062152;28;20413;-70
2022/03/11 10:45:50;;;;;;;3.07;2.87;;;4.70;51.10;;;;;;5060505;28;20432;-70
2022/03/11 10:48:38;;;;;;;6.10;3.43;;;4.80;50.50;;;;;;5051408;28;20441;-70
2022/03/11 10:51:08;;;;;;;7.40;3.83;;;4.80;50.30;;;;;;5050992;28;20728;-71
2022/03/11 10:53:39;;;;;;;8.30;3.67;;;4.70;49.80;;;;;;5051654;28;20915;-71
2022/03/11 10:56:06;;;;;;;4.60;3.23;;;4.90;49.90;;;;;;5050613;28;20935;-71
2022/03/11 10:58:32;;;;;;;3.07;2.67;;;4.90;50.60;;;;;;5054965;28;20452;-71
2022/03/11 11:00:57;;;;;;;5.37;2.67;;;5.00;49.80;;;;;;5055355;28;20410;-71
2022/03/11 11:03:24;;;;;;;7.03;5.10;;;5.00;49.30;;;;;;5054657;28;20240;-70
2022/03/11 11:05:49;;;;;;;5.23;4.50;;;5.00;49.10;;;;;;5054552;28;20214;-71
2022/03/11 11:08:15;;;;;;;9.57;3.93;;;5.10;49.20;;;;;;5054609;28;20502;-71
2022/03/11 11:10:40;;;;;;;3.90;2.70;;;5.30;48.80;;;;;;5036357;28;20178;-70
2022/03/11 11:13:09;;;;;;;3.67;3.33;;;5.30;48.80;;;;;;5054392;28;20183;-71
2022/03/11 11:15:36;;;;;;;5.00;2.87;;;5.40;48.90;;;;;;5054433;28;20163;-71
2022/03/11 11:18:12;;;;;;;6.17;3.50;;;5.50;49.70;;;;;;5054410;28;20509;-72
2022/03/11 11:21:07;;;;;;;4.63;3.20;;;5.60;48.70;;;;;;5054552;28;20401;-71
2022/03/11 11:23:34;;;;;;;5.30;4.50;;;5.60;47.60;;;;;;5037163;28;20448;-71
2022/03/11 11:25:59;;;;;;;3.90;2.43;;;5.50;47.20;;;;;;5053926;28;20974;-71
2022/03/11 11:28:26;;;;;;;5.90;4.23;;;5.70;47.60;;;;;;5054446;28;20405;-72
2022/03/11 11:30:53;;;;;;;4.40;3.63;;;5.70;47.50;;;;;;5054428;28;20258;-72
2022/03/11 11:33:19;;;;;;;4.43;4.03;;;5.90;47.50;;;;;;5054121;28;20412;-72
2022/03/11 11:35:44;;;;;;;7.90;4.43;;;5.90;47.70;;;;;;5054383;28;20496;-71
2022/03/11 11:38:37;;;;;;;8.17;4.67;;;6.00;47.90;;;;;;5054231;28;20240;-70
2022/03/11 11:41:23;;;;;;;4.60;3.00;;;6.10;47.80;;;;;;5053830;28;20167;-71
2022/03/11 11:44:04;;;;;;;5.50;3.70;;;6.20;48.00;;;;;;5034745;28;20405;-70
2022/03/11 11:46:31;;;;;;;9.93;3.83;;;6.50;48.30;;;;;;5016861;28;20418;-70
2022/03/11 11:49:03;;;;;;;5.40;3.67;;;6.60;47.30;;;;;;5018948;28;21055;-72
2022/03/11 11:51:37;;;;;;;6.13;3.90;;;6.30;47.00;;;;;;5036746;28;20398;-70
2022/03/11 11:54:14;;;;;;;3.73;3.03;;;6.40;47.10;;;;;;5034024;28;20413;-71
2022/03/11 11:56:52;;;;;;;4.90;3.73;;;6.30;47.20;;;;;;5052967;28;21047;-70
2022/03/11 11:59:25;;;;;;;2.90;2.20;;;6.40;47.60;;;;;;5056261;28;20535;-71
2022/03/11 12:01:53;;;;;;;2.60;2.40;;;6.40;47.20;;;;;;5053888;28;20402;-70
2022/03/11 12:04:19;;;;;;;5.90;3.63;;;6.30;47.30;;;;;;5053079;28;20406;-70
2022/03/11 12:07:04;;;;;;;4.37;3.33;;;6.40;47.40;;;;;;5052993;28;20430;-71
2022/03/11 12:09:42;;;;;;;5.80;2.47;;;6.70;47.50;;;;;;5052482;28;20282;-70
2022/03/11 12:12:25;;;;;;;2.87;2.67;;;6.80;46.70;;;;;;5053167;28;20459;-71
2022/03/11 12:14:56;;;;;;;6.10;2.40;;;6.90;45.90;;;;;;5053072;28;20464;-71
2022/03/11 12:18:00;;;;;;;2.70;2.30;;;6.80;45.80;;;;;;5075069;22;20482;-66
2022/03/11 12:20:49;;;;;;;3.83;3.50;;;7.10;46.10;;;;;;5033495;28;20403;-68
2022/03/11 12:23:14;;;;;;;2.87;2.63;;;7.10;45.50;;;;;;5033288;28;20920;-68
2022/03/11 12:25:48;;;;;;;8.13;2.90;;;7.10;44.90;;;;;;5032605;28;20465;-68
2022/03/11 12:28:16;;;;;;;5.07;2.87;;;7.00;44.50;;;;;;5031889;28;20650;-67
2022/03/11 12:30:53;;;;;;;3.53;3.23;;;7.00;44.40;;;;;;5028550;28;20431;-68
2022/03/11 12:33:21;;;;;;;2.90;2.53;;;7.00;44.40;;;;;;5032491;28;20497;-67
2022/03/11 12:35:49;;;;;;;4.37;2.50;;;7.20;44.50;;;;;;5033536;28;20414;-68
2022/03/11 12:38:16;;;;;;;2.90;2.70;;;7.20;44.00;;;;;;5032591;28;20804;-67
2022/03/11 12:40:43;;;;;;;6.87;3.47;;;7.10;43.60;;;;;;5032659;28;20418;-67
2022/03/11 12:43:11;;;;;;;3.30;2.70;;;7.30;43.80;;;;;;5032695;28;20526;-66
2022/03/11 12:45:41;;;;;;;11.93;3.33;;;7.30;43.60;;;;;;5032695;28;20421;-66
2022/03/11 12:48:08;;;;;;;2.80;2.53;;;7.40;43.40;;;;;;5033075;28;20500;-66
2022/03/11 12:50:35;;;;;;;5.30;3.17;;;7.40;43.30;;;;;;5032841;28;20468;-67
2022/03/11 12:53:01;;;;;;;4.60;2.70;;;7.60;43.70;;;;;;5032809;28;20411;-66